sensor_id;sensor_type;location;lat;lon;timestamp;temperature;humidity
76384;SHT30;65204;48.606;7.598;2023-03-05T00:00:17;7.51;56.84
76384;SHT30;65204;48.606;7.598;2023-03-05T00:00:47;7.50;56.88
76384;SHT30;65204;48.606;7.598;2023-03-05T00:01:30;7.48;56.82
76384;SHT30;65204;48.606;7.598;2023-03-05T00:02:02;7.47;56.89
76384;SHT30;65204;48.606;7.598;2023-03-05T00:02:32;7.47;57.01
76384;SHT30;65204;48.606;7.598;2023-03-05T00:03:03;7.43;57.22
76384;SHT30;65204;48.606;7.598;2023-03-05T00:03:33;7.41;57.29
76384;SHT30;65204;48.606;7.598;2023-03-05T00:04:07;7.40;57.40
76384;SHT30;65204;48.606;7.598;2023-03-05T00:04:39;7.38;57.29
76384;SHT30;65204;48.606;7.598;2023-03-05T00:05:10;7.35;57.54
76384;SHT30;65204;48.606;7.598;2023-03-05T00:05:40;7.32;57.76
76384;SHT30;65204;48.606;7.598;2023-03-05T00:06:11;7.31;57.92
76384;SHT30;65204;48.606;7.598;2023-03-05T00:06:41;7.34;57.98
76384;SHT30;65204;48.606;7.598;2023-03-05T00:07:12;7.31;57.71
76384;SHT30;65204;48.606;7.598;2023-03-05T00:07:43;7.30;57.89
76384;SHT30;65204;48.606;7.598;2023-03-05T00:08:13;7.28;57.89
76384;SHT30;65204;48.606;7.598;2023-03-05T00:08:44;7.27;58.01
76384;SHT30;65204;48.606;7.598;2023-03-05T00:09:14;7.23;58.05
76384;SHT30;65204;48.606;7.598;2023-03-05T00:09:44;7.21;58.07
76384;SHT30;65204;48.606;7.598;2023-03-05T00:10:15;7.23;58.07
76384;SHT30;65204;48.606;7.598;2023-03-05T00:10:54;7.20;58.05
76384;SHT30;65204;48.606;7.598;2023-03-05T00:11:26;7.18;58.03
76384;SHT30;65204;48.606;7.598;2023-03-05T00:11:58;7.18;58.00
76384;SHT30;65204;48.606;7.598;2023-03-05T00:12:29;7.18;58.00
76384;SHT30;65204;48.606;7.598;2023-03-05T00:12:59;7.18;57.93
76384;SHT30;65204;48.606;7.598;2023-03-05T00:13:30;7.18;57.86
76384;SHT30;65204;48.606;7.598;2023-03-05T00:14:02;7.18;57.89
76384;SHT30;65204;48.606;7.598;2023-03-05T00:14:33;7.17;57.88
76384;SHT30;65204;48.606;7.598;2023-03-05T00:15:03;7.21;57.90
76384;SHT30;65204;48.606;7.598;2023-03-05T00:15:40;7.20;57.80
76384;SHT30;65204;48.606;7.598;2023-03-05T00:16:13;7.18;57.96
76384;SHT30;65204;48.606;7.598;2023-03-05T00:16:44;7.21;58.02
76384;SHT30;65204;48.606;7.598;2023-03-05T00:17:14;7.21;57.91
76384;SHT30;65204;48.606;7.598;2023-03-05T00:17:44;7.21;57.90
76384;SHT30;65204;48.606;7.598;2023-03-05T00:18:15;7.18;57.95
76384;SHT30;65204;48.606;7.598;2023-03-05T00:18:45;7.18;57.92
76384;SHT30;65204;48.606;7.598;2023-03-05T00:19:16;7.20;57.88
76384;SHT30;65204;48.606;7.598;2023-03-05T00:19:46;7.18;57.85
76384;SHT30;65204;48.606;7.598;2023-03-05T00:20:17;7.17;57.89
76384;SHT30;65204;48.606;7.598;2023-03-05T00:20:48;7.20;57.93
76384;SHT30;65204;48.606;7.598;2023-03-05T00:21:34;7.18;57.98
76384;SHT30;65204;48.606;7.598;2023-03-05T00:22:04;7.18;57.99
76384;SHT30;65204;48.606;7.598;2023-03-05T00:22:35;7.23;58.04
76384;SHT30;65204;48.606;7.598;2023-03-05T00:23:05;7.20;58.18
76384;SHT30;65204;48.606;7.598;2023-03-05T00:23:36;7.20;58.22
76384;SHT30;65204;48.606;7.598;2023-03-05T00:24:13;7.21;58.08
76384;SHT30;65204;48.606;7.598;2023-03-05T00:24:44;7.20;58.15
76384;SHT30;65204;48.606;7.598;2023-03-05T00:25:14;7.18;58.08
76384;SHT30;65204;48.606;7.598;2023-03-05T00:25:45;7.15;58.21
76384;SHT30;65204;48.606;7.598;2023-03-05T00:26:20;7.15;58.23
76384;SHT30;65204;48.606;7.598;2023-03-05T00:26:51;7.14;58.19
76384;SHT30;65204;48.606;7.598;2023-03-05T00:27:22;7.13;58.23
76384;SHT30;65204;48.606;7.598;2023-03-05T00:27:53;7.11;58.20
76384;SHT30;65204;48.606;7.598;2023-03-05T00:28:23;7.10;58.19
76384;SHT30;65204;48.606;7.598;2023-03-05T00:28:56;7.11;58.49
76384;SHT30;65204;48.606;7.598;2023-03-05T00:29:26;7.13;58.59
76384;SHT30;65204;48.606;7.598;2023-03-05T00:29:57;7.13;58.80
76384;SHT30;65204;48.606;7.598;2023-03-05T00:30:28;7.13;58.64
76384;SHT30;65204;48.606;7.598;2023-03-05T00:30:59;7.14;58.62
76384;SHT30;65204;48.606;7.598;2023-03-05T00:31:32;7.13;58.63
76384;SHT30;65204;48.606;7.598;2023-03-05T00:32:03;7.14;58.63
76384;SHT30;65204;48.606;7.598;2023-03-05T00:32:33;7.11;58.67
76384;SHT30;65204;48.606;7.598;2023-03-05T00:33:05;7.14;58.39
76384;SHT30;65204;48.606;7.598;2023-03-05T00:33:35;7.18;58.24
76384;SHT30;65204;48.606;7.598;2023-03-05T00:34:08;7.15;58.45
76384;SHT30;65204;48.606;7.598;2023-03-05T00:34:40;7.17;58.32
76384;SHT30;65204;48.606;7.598;2023-03-05T00:35:10;7.14;58.25
76384;SHT30;65204;48.606;7.598;2023-03-05T00:35:43;7.17;58.27
76384;SHT30;65204;48.606;7.598;2023-03-05T00:36:14;7.15;58.15
76384;SHT30;65204;48.606;7.598;2023-03-05T00:36:50;7.18;58.23
76384;SHT30;65204;48.606;7.598;2023-03-05T00:37:20;7.17;58.22
76384;SHT30;65204;48.606;7.598;2023-03-05T00:37:51;7.15;58.12
76384;SHT30;65204;48.606;7.598;2023-03-05T00:38:22;7.15;58.21
76384;SHT30;65204;48.606;7.598;2023-03-05T00:38:52;7.15;58.20
76384;SHT30;65204;48.606;7.598;2023-03-05T00:39:23;7.18;58.17
76384;SHT30;65204;48.606;7.598;2023-03-05T00:39:54;7.17;58.19
76384;SHT30;65204;48.606;7.598;2023-03-05T00:40:24;7.17;58.25
76384;SHT30;65204;48.606;7.598;2023-03-05T00:40:55;7.18;58.13
76384;SHT30;65204;48.606;7.598;2023-03-05T00:41:25;7.18;58.00
76384;SHT30;65204;48.606;7.598;2023-03-05T00:41:56;7.15;58.00
76384;SHT30;65204;48.606;7.598;2023-03-05T00:42:26;7.17;57.98
76384;SHT30;65204;48.606;7.598;2023-03-05T00:42:57;7.17;58.00
76384;SHT30;65204;48.606;7.598;2023-03-05T00:43:28;7.15;58.06
76384;SHT30;65204;48.606;7.598;2023-03-05T00:43:59;7.17;57.93
76384;SHT30;65204;48.606;7.598;2023-03-05T00:44:29;7.20;58.09
76384;SHT30;65204;48.606;7.598;2023-03-05T00:44:59;7.17;58.25
76384;SHT30;65204;48.606;7.598;2023-03-05T00:45:30;7.18;58.01
76384;SHT30;65204;48.606;7.598;2023-03-05T00:46:00;7.18;57.88
76384;SHT30;65204;48.606;7.598;2023-03-05T00:46:31;7.18;58.06
76384;SHT30;65204;48.606;7.598;2023-03-05T00:47:01;7.18;58.07
76384;SHT30;65204;48.606;7.598;2023-03-05T00:47:32;7.18;58.10
76384;SHT30;65204;48.606;7.598;2023-03-05T00:48:03;7.20;57.97
76384;SHT30;65204;48.606;7.598;2023-03-05T00:48:33;7.20;57.88
76384;SHT30;65204;48.606;7.598;2023-03-05T00:49:03;7.20;57.81
76384;SHT30;65204;48.606;7.598;2023-03-05T00:49:34;7.17;57.95
76384;SHT30;65204;48.606;7.598;2023-03-05T00:50:05;7.17;58.36
76384;SHT30;65204;48.606;7.598;2023-03-05T00:50:36;7.17;58.38
76384;SHT30;65204;48.606;7.598;2023-03-05T00:51:06;7.17;58.31
76384;SHT30;65204;48.606;7.598;2023-03-05T00:51:38;7.18;58.35
76384;SHT30;65204;48.606;7.598;2023-03-05T00:52:08;7.15;58.45
76384;SHT30;65204;48.606;7.598;2023-03-05T00:52:39;7.15;58.41
76384;SHT30;65204;48.606;7.598;2023-03-05T00:53:09;7.17;58.43
76384;SHT30;65204;48.606;7.598;2023-03-05T00:53:40;7.14;58.57
76384;SHT30;65204;48.606;7.598;2023-03-05T00:54:10;7.15;58.59
76384;SHT30;65204;48.606;7.598;2023-03-05T00:54:41;7.14;58.73
76384;SHT30;65204;48.606;7.598;2023-03-05T00:55:11;7.11;58.99
76384;SHT30;65204;48.606;7.598;2023-03-05T00:55:41;7.10;59.05
76384;SHT30;65204;48.606;7.598;2023-03-05T00:56:12;7.10;59.22
76384;SHT30;65204;48.606;7.598;2023-03-05T00:56:42;7.10;59.15
76384;SHT30;65204;48.606;7.598;2023-03-05T00:57:12;7.13;59.05
76384;SHT30;65204;48.606;7.598;2023-03-05T00:57:43;7.10;59.03
76384;SHT30;65204;48.606;7.598;2023-03-05T00:58:13;7.11;59.07
76384;SHT30;65204;48.606;7.598;2023-03-05T00:58:44;7.08;59.05
76384;SHT30;65204;48.606;7.598;2023-03-05T00:59:14;7.08;59.08
76384;SHT30;65204;48.606;7.598;2023-03-05T00:59:44;7.11;59.17
76384;SHT30;65204;48.606;7.598;2023-03-05T01:00:15;7.11;59.15
76384;SHT30;65204;48.606;7.598;2023-03-05T01:00:46;7.13;59.23
76384;SHT30;65204;48.606;7.598;2023-03-05T01:01:19;7.11;59.22
76384;SHT30;65204;48.606;7.598;2023-03-05T01:01:49;7.10;58.87
76384;SHT30;65204;48.606;7.598;2023-03-05T01:02:20;7.14;58.69
76384;SHT30;65204;48.606;7.598;2023-03-05T01:02:50;7.11;58.74
76384;SHT30;65204;48.606;7.598;2023-03-05T01:03:20;7.13;58.78
76384;SHT30;65204;48.606;7.598;2023-03-05T01:03:51;7.11;58.77
76384;SHT30;65204;48.606;7.598;2023-03-05T01:04:21;7.10;58.73
76384;SHT30;65204;48.606;7.598;2023-03-05T01:04:52;7.13;58.81
76384;SHT30;65204;48.606;7.598;2023-03-05T01:05:22;7.14;58.80
76384;SHT30;65204;48.606;7.598;2023-03-05T01:05:52;7.15;58.65
76384;SHT30;65204;48.606;7.598;2023-03-05T01:06:23;7.13;58.42
76384;SHT30;65204;48.606;7.598;2023-03-05T01:06:53;7.14;58.30
76384;SHT30;65204;48.606;7.598;2023-03-05T01:07:23;7.13;58.28
76384;SHT30;65204;48.606;7.598;2023-03-05T01:07:54;7.13;58.36
76384;SHT30;65204;48.606;7.598;2023-03-05T01:08:25;7.13;58.50
76384;SHT30;65204;48.606;7.598;2023-03-05T01:08:56;7.13;58.69
76384;SHT30;65204;48.606;7.598;2023-03-05T01:09:28;7.11;58.65
76384;SHT30;65204;48.606;7.598;2023-03-05T01:09:59;7.11;58.63
76384;SHT30;65204;48.606;7.598;2023-03-05T01:10:30;7.11;58.66
76384;SHT30;65204;48.606;7.598;2023-03-05T01:11:01;7.11;58.66
76384;SHT30;65204;48.606;7.598;2023-03-05T01:11:32;7.13;58.77
76384;SHT30;65204;48.606;7.598;2023-03-05T01:12:02;7.14;58.90
76384;SHT30;65204;48.606;7.598;2023-03-05T01:12:33;7.17;59.07
76384;SHT30;65204;48.606;7.598;2023-03-05T01:13:03;7.13;59.15
76384;SHT30;65204;48.606;7.598;2023-03-05T01:13:34;7.13;59.16
76384;SHT30;65204;48.606;7.598;2023-03-05T01:14:04;7.13;59.17
76384;SHT30;65204;48.606;7.598;2023-03-05T01:14:35;7.11;59.37
76384;SHT30;65204;48.606;7.598;2023-03-05T01:15:06;7.10;59.42
76384;SHT30;65204;48.606;7.598;2023-03-05T01:15:36;7.10;59.11
76384;SHT30;65204;48.606;7.598;2023-03-05T01:16:07;7.08;59.13
76384;SHT30;65204;48.606;7.598;2023-03-05T01:16:37;7.08;59.01
76384;SHT30;65204;48.606;7.598;2023-03-05T01:17:08;7.11;58.97
76384;SHT30;65204;48.606;7.598;2023-03-05T01:17:38;7.10;59.03
76384;SHT30;65204;48.606;7.598;2023-03-05T01:18:08;7.14;59.05
76384;SHT30;65204;48.606;7.598;2023-03-05T01:18:39;7.10;58.95
76384;SHT30;65204;48.606;7.598;2023-03-05T01:19:10;7.10;59.19
76384;SHT30;65204;48.606;7.598;2023-03-05T01:19:40;7.10;59.41
76384;SHT30;65204;48.606;7.598;2023-03-05T01:20:12;7.10;59.31
76384;SHT30;65204;48.606;7.598;2023-03-05T01:20:43;7.10;59.05
76384;SHT30;65204;48.606;7.598;2023-03-05T01:21:13;7.10;58.98
76384;SHT30;65204;48.606;7.598;2023-03-05T01:21:44;7.11;58.87
76384;SHT30;65204;48.606;7.598;2023-03-05T01:22:14;7.14;58.79
76384;SHT30;65204;48.606;7.598;2023-03-05T01:22:44;7.13;58.71
76384;SHT30;65204;48.606;7.598;2023-03-05T01:23:15;7.10;58.70
76384;SHT30;65204;48.606;7.598;2023-03-05T01:23:45;7.07;58.72
76384;SHT30;65204;48.606;7.598;2023-03-05T01:24:16;7.10;58.61
76384;SHT30;65204;48.606;7.598;2023-03-05T01:24:46;7.10;58.72
76384;SHT30;65204;48.606;7.598;2023-03-05T01:25:17;7.11;58.80
76384;SHT30;65204;48.606;7.598;2023-03-05T01:25:57;7.11;58.67
76384;SHT30;65204;48.606;7.598;2023-03-05T01:26:27;7.11;58.76
76384;SHT30;65204;48.606;7.598;2023-03-05T01:26:58;7.13;58.79
76384;SHT30;65204;48.606;7.598;2023-03-05T01:27:28;7.10;58.84
76384;SHT30;65204;48.606;7.598;2023-03-05T01:27:58;7.10;58.93
76384;SHT30;65204;48.606;7.598;2023-03-05T01:28:29;7.11;58.91
76384;SHT30;65204;48.606;7.598;2023-03-05T01:29:00;7.10;58.87
76384;SHT30;65204;48.606;7.598;2023-03-05T01:29:30;7.08;58.86
76384;SHT30;65204;48.606;7.598;2023-03-05T01:30:01;7.13;58.82
76384;SHT30;65204;48.606;7.598;2023-03-05T01:30:32;7.13;58.80
76384;SHT30;65204;48.606;7.598;2023-03-05T01:31:06;7.07;58.70
76384;SHT30;65204;48.606;7.598;2023-03-05T01:31:36;7.10;58.81
76384;SHT30;65204;48.606;7.598;2023-03-05T01:32:07;7.13;58.83
76384;SHT30;65204;48.606;7.598;2023-03-05T01:32:37;7.13;58.60
76384;SHT30;65204;48.606;7.598;2023-03-05T01:33:08;7.11;58.47
76384;SHT30;65204;48.606;7.598;2023-03-05T01:33:38;7.08;58.49
76384;SHT30;65204;48.606;7.598;2023-03-05T01:34:09;7.11;58.54
76384;SHT30;65204;48.606;7.598;2023-03-05T01:34:39;7.11;58.71
76384;SHT30;65204;48.606;7.598;2023-03-05T01:35:16;7.10;58.74
76384;SHT30;65204;48.606;7.598;2023-03-05T01:35:48;7.11;58.73
76384;SHT30;65204;48.606;7.598;2023-03-05T01:36:19;7.11;58.85
76384;SHT30;65204;48.606;7.598;2023-03-05T01:36:50;7.14;58.95
76384;SHT30;65204;48.606;7.598;2023-03-05T01:37:20;7.11;58.93
76384;SHT30;65204;48.606;7.598;2023-03-05T01:37:51;7.14;58.94
76384;SHT30;65204;48.606;7.598;2023-03-05T01:38:22;7.13;58.97
76384;SHT30;65204;48.606;7.598;2023-03-05T01:38:52;7.11;58.57
76384;SHT30;65204;48.606;7.598;2023-03-05T01:39:23;7.13;58.59
76384;SHT30;65204;48.606;7.598;2023-03-05T01:39:53;7.11;58.68
76384;SHT30;65204;48.606;7.598;2023-03-05T01:40:26;7.13;58.80
76384;SHT30;65204;48.606;7.598;2023-03-05T01:40:56;7.13;58.83
76384;SHT30;65204;48.606;7.598;2023-03-05T01:41:27;7.14;58.91
76384;SHT30;65204;48.606;7.598;2023-03-05T01:41:57;7.10;58.87
76384;SHT30;65204;48.606;7.598;2023-03-05T01:42:28;7.14;58.75
76384;SHT30;65204;48.606;7.598;2023-03-05T01:43:07;7.13;58.80
76384;SHT30;65204;48.606;7.598;2023-03-05T01:43:48;7.13;58.64
76384;SHT30;65204;48.606;7.598;2023-03-05T01:44:26;7.13;58.52
76384;SHT30;65204;48.606;7.598;2023-03-05T01:45:09;7.13;58.37
76384;SHT30;65204;48.606;7.598;2023-03-05T01:46:48;7.15;58.47
76384;SHT30;65204;48.606;7.598;2023-03-05T01:47:19;7.13;58.57
76384;SHT30;65204;48.606;7.598;2023-03-05T01:47:49;7.14;58.51
76384;SHT30;65204;48.606;7.598;2023-03-05T01:48:20;7.13;58.31
76384;SHT30;65204;48.606;7.598;2023-03-05T01:49:36;7.15;58.33
76384;SHT30;65204;48.606;7.598;2023-03-05T01:50:10;7.14;58.28
76384;SHT30;65204;48.606;7.598;2023-03-05T01:50:41;7.14;58.07
76384;SHT30;65204;48.606;7.598;2023-03-05T01:51:12;7.13;57.88
76384;SHT30;65204;48.606;7.598;2023-03-05T01:52:03;7.10;57.89
76384;SHT30;65204;48.606;7.598;2023-03-05T01:52:36;7.15;57.75
76384;SHT30;65204;48.606;7.598;2023-03-05T01:53:08;7.13;57.83
76384;SHT30;65204;48.606;7.598;2023-03-05T01:53:39;7.10;57.55
76384;SHT30;65204;48.606;7.598;2023-03-05T01:54:10;7.10;57.61
76384;SHT30;65204;48.606;7.598;2023-03-05T01:54:49;7.11;57.62
76384;SHT30;65204;48.606;7.598;2023-03-05T01:55:22;7.11;57.69
76384;SHT30;65204;48.606;7.598;2023-03-05T01:55:53;7.10;57.59
76384;SHT30;65204;48.606;7.598;2023-03-05T01:56:24;7.11;57.61
76384;SHT30;65204;48.606;7.598;2023-03-05T01:56:59;7.13;57.66
76384;SHT30;65204;48.606;7.598;2023-03-05T01:57:39;7.15;57.73
76384;SHT30;65204;48.606;7.598;2023-03-05T01:58:12;7.14;57.76
76384;SHT30;65204;48.606;7.598;2023-03-05T01:58:46;7.13;57.80
76384;SHT30;65204;48.606;7.598;2023-03-05T01:59:17;7.13;57.78
76384;SHT30;65204;48.606;7.598;2023-03-05T01:59:51;7.13;57.79
76384;SHT30;65204;48.606;7.598;2023-03-05T02:00:28;7.13;57.58
76384;SHT30;65204;48.606;7.598;2023-03-05T02:01:00;7.11;57.67
76384;SHT30;65204;48.606;7.598;2023-03-05T02:01:38;7.13;57.79
76384;SHT30;65204;48.606;7.598;2023-03-05T02:02:11;7.11;57.79
76384;SHT30;65204;48.606;7.598;2023-03-05T02:02:44;7.11;57.54
76384;SHT30;65204;48.606;7.598;2023-03-05T02:03:16;7.10;57.60
76384;SHT30;65204;48.606;7.598;2023-03-05T02:03:47;7.10;57.58
76384;SHT30;65204;48.606;7.598;2023-03-05T02:04:18;7.10;57.58
76384;SHT30;65204;48.606;7.598;2023-03-05T02:04:53;7.11;57.62
76384;SHT30;65204;48.606;7.598;2023-03-05T02:05:28;7.11;57.61
76384;SHT30;65204;48.606;7.598;2023-03-05T02:05:58;7.08;57.73
76384;SHT30;65204;48.606;7.598;2023-03-05T02:06:29;7.13;57.68
76384;SHT30;65204;48.606;7.598;2023-03-05T02:07:00;7.10;57.64
76384;SHT30;65204;48.606;7.598;2023-03-05T02:07:31;7.14;57.53
76384;SHT30;65204;48.606;7.598;2023-03-05T02:08:06;7.11;57.68
76384;SHT30;65204;48.606;7.598;2023-03-05T02:08:37;7.13;57.77
76384;SHT30;65204;48.606;7.598;2023-03-05T02:09:08;7.13;57.73
76384;SHT30;65204;48.606;7.598;2023-03-05T02:09:39;7.13;57.81
76384;SHT30;65204;48.606;7.598;2023-03-05T02:10:15;7.13;57.78
76384;SHT30;65204;48.606;7.598;2023-03-05T02:10:51;7.13;57.68
76384;SHT30;65204;48.606;7.598;2023-03-05T02:11:23;7.14;57.64
76384;SHT30;65204;48.606;7.598;2023-03-05T02:11:54;7.11;57.59
76384;SHT30;65204;48.606;7.598;2023-03-05T02:12:25;7.11;57.57
76384;SHT30;65204;48.606;7.598;2023-03-05T02:12:57;7.13;57.66
76384;SHT30;65204;48.606;7.598;2023-03-05T02:13:32;7.11;57.88
76384;SHT30;65204;48.606;7.598;2023-03-05T02:14:04;7.11;57.71
76384;SHT30;65204;48.606;7.598;2023-03-05T02:14:35;7.13;57.72
76384;SHT30;65204;48.606;7.598;2023-03-05T02:15:06;7.14;57.63
76384;SHT30;65204;48.606;7.598;2023-03-05T02:15:37;7.14;57.63
76384;SHT30;65204;48.606;7.598;2023-03-05T02:16:08;7.13;57.70
76384;SHT30;65204;48.606;7.598;2023-03-05T02:16:38;7.11;57.52
76384;SHT30;65204;48.606;7.598;2023-03-05T02:17:09;7.14;57.43
76384;SHT30;65204;48.606;7.598;2023-03-05T02:17:40;7.14;57.46
76384;SHT30;65204;48.606;7.598;2023-03-05T02:18:10;7.13;57.60
76384;SHT30;65204;48.606;7.598;2023-03-05T02:18:41;7.11;57.70
76384;SHT30;65204;48.606;7.598;2023-03-05T02:19:11;7.14;57.73
76384;SHT30;65204;48.606;7.598;2023-03-05T02:20:01;7.14;57.65
76384;SHT30;65204;48.606;7.598;2023-03-05T02:21:26;7.15;57.44
76384;SHT30;65204;48.606;7.598;2023-03-05T02:21:57;7.13;57.41
76384;SHT30;65204;48.606;7.598;2023-03-05T02:22:28;7.13;57.48
76384;SHT30;65204;48.606;7.598;2023-03-05T02:22:58;7.10;57.55
76384;SHT30;65204;48.606;7.598;2023-03-05T02:23:31;7.11;57.57
76384;SHT30;65204;48.606;7.598;2023-03-05T02:24:03;7.11;57.61
76384;SHT30;65204;48.606;7.598;2023-03-05T02:24:35;7.13;57.64
76384;SHT30;65204;48.606;7.598;2023-03-05T02:25:38;7.13;57.41
76384;SHT30;65204;48.606;7.598;2023-03-05T02:26:09;7.13;57.39
76384;SHT30;65204;48.606;7.598;2023-03-05T02:26:40;7.13;57.38
76384;SHT30;65204;48.606;7.598;2023-03-05T02:27:13;7.08;57.51
76384;SHT30;65204;48.606;7.598;2023-03-05T02:28:50;7.14;57.48
76384;SHT30;65204;48.606;7.598;2023-03-05T02:29:23;7.13;57.51
76384;SHT30;65204;48.606;7.598;2023-03-05T02:29:53;7.14;57.56
76384;SHT30;65204;48.606;7.598;2023-03-05T02:30:24;7.14;57.62
76384;SHT30;65204;48.606;7.598;2023-03-05T02:30:54;7.10;57.47
76384;SHT30;65204;48.606;7.598;2023-03-05T02:31:26;7.11;57.48
76384;SHT30;65204;48.606;7.598;2023-03-05T02:31:56;7.10;57.60
76384;SHT30;65204;48.606;7.598;2023-03-05T02:32:27;7.10;57.71
76384;SHT30;65204;48.606;7.598;2023-03-05T02:32:57;7.07;57.80
76384;SHT30;65204;48.606;7.598;2023-03-05T02:33:27;7.10;57.86
76384;SHT30;65204;48.606;7.598;2023-03-05T02:33:58;7.08;57.96
76384;SHT30;65204;48.606;7.598;2023-03-05T02:34:28;7.10;57.84
76384;SHT30;65204;48.606;7.598;2023-03-05T02:34:59;7.10;57.85
76384;SHT30;65204;48.606;7.598;2023-03-05T02:35:29;7.11;57.90
76384;SHT30;65204;48.606;7.598;2023-03-05T02:36:00;7.11;57.89
76384;SHT30;65204;48.606;7.598;2023-03-05T02:36:30;7.10;57.84
76384;SHT30;65204;48.606;7.598;2023-03-05T02:37:01;7.08;57.70
76384;SHT30;65204;48.606;7.598;2023-03-05T02:37:33;7.08;57.70
76384;SHT30;65204;48.606;7.598;2023-03-05T02:38:04;7.13;57.85
76384;SHT30;65204;48.606;7.598;2023-03-05T02:38:34;7.10;57.89
76384;SHT30;65204;48.606;7.598;2023-03-05T02:39:05;7.10;57.92
76384;SHT30;65204;48.606;7.598;2023-03-05T02:39:36;7.10;57.89
76384;SHT30;65204;48.606;7.598;2023-03-05T02:40:07;7.13;57.81
76384;SHT30;65204;48.606;7.598;2023-03-05T02:40:37;7.11;57.75
76384;SHT30;65204;48.606;7.598;2023-03-05T02:41:09;7.13;57.83
76384;SHT30;65204;48.606;7.598;2023-03-05T02:41:39;7.13;57.92
76384;SHT30;65204;48.606;7.598;2023-03-05T02:42:09;7.14;57.88
76384;SHT30;65204;48.606;7.598;2023-03-05T02:42:40;7.13;57.81
76384;SHT30;65204;48.606;7.598;2023-03-05T02:43:11;7.13;57.67
76384;SHT30;65204;48.606;7.598;2023-03-05T02:43:41;7.10;57.80
76384;SHT30;65204;48.606;7.598;2023-03-05T02:44:12;7.13;57.73
76384;SHT30;65204;48.606;7.598;2023-03-05T02:44:42;7.11;57.75
76384;SHT30;65204;48.606;7.598;2023-03-05T02:45:12;7.13;57.74
76384;SHT30;65204;48.606;7.598;2023-03-05T02:45:43;7.11;57.91
76384;SHT30;65204;48.606;7.598;2023-03-05T02:46:13;7.13;57.96
76384;SHT30;65204;48.606;7.598;2023-03-05T02:46:43;7.14;57.93
76384;SHT30;65204;48.606;7.598;2023-03-05T02:47:14;7.14;57.79
76384;SHT30;65204;48.606;7.598;2023-03-05T02:47:44;7.13;57.74
76384;SHT30;65204;48.606;7.598;2023-03-05T02:48:14;7.11;57.90
76384;SHT30;65204;48.606;7.598;2023-03-05T02:48:45;7.11;58.03
76384;SHT30;65204;48.606;7.598;2023-03-05T02:49:15;7.13;58.16
76384;SHT30;65204;48.606;7.598;2023-03-05T02:49:45;7.13;58.04
76384;SHT30;65204;48.606;7.598;2023-03-05T02:50:16;7.14;58.03
76384;SHT30;65204;48.606;7.598;2023-03-05T02:50:47;7.15;58.15
76384;SHT30;65204;48.606;7.598;2023-03-05T02:51:17;7.13;58.07
76384;SHT30;65204;48.606;7.598;2023-03-05T02:51:48;7.13;58.07
76384;SHT30;65204;48.606;7.598;2023-03-05T02:52:19;7.13;58.09
76384;SHT30;65204;48.606;7.598;2023-03-05T02:52:49;7.15;58.05
76384;SHT30;65204;48.606;7.598;2023-03-05T02:53:19;7.14;57.99
76384;SHT30;65204;48.606;7.598;2023-03-05T02:53:50;7.17;58.00
76384;SHT30;65204;48.606;7.598;2023-03-05T02:54:20;7.17;57.94
76384;SHT30;65204;48.606;7.598;2023-03-05T02:54:51;7.17;57.91
76384;SHT30;65204;48.606;7.598;2023-03-05T02:55:22;7.13;57.94
76384;SHT30;65204;48.606;7.598;2023-03-05T02:55:52;7.15;57.85
76384;SHT30;65204;48.606;7.598;2023-03-05T02:56:22;7.15;57.86
76384;SHT30;65204;48.606;7.598;2023-03-05T02:56:53;7.18;57.80
76384;SHT30;65204;48.606;7.598;2023-03-05T02:57:23;7.18;57.80
76384;SHT30;65204;48.606;7.598;2023-03-05T02:57:54;7.17;57.86
76384;SHT30;65204;48.606;7.598;2023-03-05T02:58:24;7.14;57.85
76384;SHT30;65204;48.606;7.598;2023-03-05T02:58:54;7.15;57.96
76384;SHT30;65204;48.606;7.598;2023-03-05T02:59:25;7.17;57.95
76384;SHT30;65204;48.606;7.598;2023-03-05T02:59:55;7.14;57.97
76384;SHT30;65204;48.606;7.598;2023-03-05T03:00:26;7.14;57.99
76384;SHT30;65204;48.606;7.598;2023-03-05T03:00:56;7.15;58.05
76384;SHT30;65204;48.606;7.598;2023-03-05T03:01:26;7.14;58.05
76384;SHT30;65204;48.606;7.598;2023-03-05T03:01:58;7.17;57.98
76384;SHT30;65204;48.606;7.598;2023-03-05T03:02:29;7.15;57.96
76384;SHT30;65204;48.606;7.598;2023-03-05T03:02:59;7.14;57.93
76384;SHT30;65204;48.606;7.598;2023-03-05T03:03:29;7.14;58.05
76384;SHT30;65204;48.606;7.598;2023-03-05T03:04:00;7.15;58.13
76384;SHT30;65204;48.606;7.598;2023-03-05T03:04:30;7.14;58.25
76384;SHT30;65204;48.606;7.598;2023-03-05T03:05:01;7.13;58.32
76384;SHT30;65204;48.606;7.598;2023-03-05T03:05:31;7.14;58.33
76384;SHT30;65204;48.606;7.598;2023-03-05T03:06:02;7.13;58.21
76384;SHT30;65204;48.606;7.598;2023-03-05T03:06:32;7.11;58.33
76384;SHT30;65204;48.606;7.598;2023-03-05T03:07:03;7.13;58.29
76384;SHT30;65204;48.606;7.598;2023-03-05T03:07:33;7.14;58.16
76384;SHT30;65204;48.606;7.598;2023-03-05T03:08:06;7.15;58.13
76384;SHT30;65204;48.606;7.598;2023-03-05T03:08:36;7.14;58.13
76384;SHT30;65204;48.606;7.598;2023-03-05T03:09:06;7.14;58.14
76384;SHT30;65204;48.606;7.598;2023-03-05T03:09:37;7.13;58.15
76384;SHT30;65204;48.606;7.598;2023-03-05T03:10:08;7.13;58.13
76384;SHT30;65204;48.606;7.598;2023-03-05T03:10:39;7.15;58.27
76384;SHT30;65204;48.606;7.598;2023-03-05T03:11:10;7.14;58.22
76384;SHT30;65204;48.606;7.598;2023-03-05T03:11:41;7.13;58.27
76384;SHT30;65204;48.606;7.598;2023-03-05T03:12:12;7.14;58.24
76384;SHT30;65204;48.606;7.598;2023-03-05T03:12:43;7.13;58.28
76384;SHT30;65204;48.606;7.598;2023-03-05T03:13:14;7.14;58.27
76384;SHT30;65204;48.606;7.598;2023-03-05T03:13:44;7.14;58.34
76384;SHT30;65204;48.606;7.598;2023-03-05T03:14:14;7.13;58.31
76384;SHT30;65204;48.606;7.598;2023-03-05T03:14:44;7.13;58.32
76384;SHT30;65204;48.606;7.598;2023-03-05T03:15:16;7.14;58.31
76384;SHT30;65204;48.606;7.598;2023-03-05T03:15:47;7.14;58.29
76384;SHT30;65204;48.606;7.598;2023-03-05T03:16:18;7.14;58.23
76384;SHT30;65204;48.606;7.598;2023-03-05T03:16:48;7.14;58.22
76384;SHT30;65204;48.606;7.598;2023-03-05T03:17:19;7.17;58.29
76384;SHT30;65204;48.606;7.598;2023-03-05T03:17:49;7.14;58.36
76384;SHT30;65204;48.606;7.598;2023-03-05T03:18:19;7.14;58.28
76384;SHT30;65204;48.606;7.598;2023-03-05T03:18:50;7.14;58.24
76384;SHT30;65204;48.606;7.598;2023-03-05T03:19:20;7.17;58.18
76384;SHT30;65204;48.606;7.598;2023-03-05T03:19:50;7.15;58.15
76384;SHT30;65204;48.606;7.598;2023-03-05T03:20:21;7.18;58.15
76384;SHT30;65204;48.606;7.598;2023-03-05T03:20:52;7.15;58.18
76384;SHT30;65204;48.606;7.598;2023-03-05T03:21:24;7.14;58.19
76384;SHT30;65204;48.606;7.598;2023-03-05T03:21:56;7.14;58.18
76384;SHT30;65204;48.606;7.598;2023-03-05T03:22:26;7.11;58.23
76384;SHT30;65204;48.606;7.598;2023-03-05T03:22:56;7.15;58.28
76384;SHT30;65204;48.606;7.598;2023-03-05T03:23:27;7.11;58.24
76384;SHT30;65204;48.606;7.598;2023-03-05T03:23:57;7.13;58.28
76384;SHT30;65204;48.606;7.598;2023-03-05T03:24:29;7.14;58.28
76384;SHT30;65204;48.606;7.598;2023-03-05T03:25:00;7.13;58.20
76384;SHT30;65204;48.606;7.598;2023-03-05T03:25:30;7.14;58.23